createdAt,value
2023-03-10T20:03:56.886Z,14.16
2023-03-10T20:06:24.721Z,14.16
2023-03-10T20:08:52.100Z,13.76
2023-03-10T20:11:19.823Z,14.08
2023-03-10T20:13:47.510Z,13.70
2023-03-10T20:16:15.390Z,13.92
2023-03-10T20:18:42.753Z,13.96
2023-03-10T20:21:10.761Z,13.82
2023-03-10T20:23:38.355Z,13.83
2023-03-10T20:26:09.603Z,13.97
2023-03-10T20:28:37.381Z,14.15
2023-03-10T20:31:04.771Z,14.20
2023-03-10T20:33:32.122Z,14.25
2023-03-10T20:35:59.838Z,14.18
2023-03-10T20:38:27.290Z,14.02
2023-03-10T20:40:54.610Z,13.82
2023-03-10T20:43:22.191Z,13.74
2023-03-10T20:45:51.496Z,13.51
2023-03-10T20:48:18.975Z,13.77
2023-03-10T20:50:46.557Z,13.48
2023-03-10T20:53:13.864Z,13.79
2023-03-10T20:55:41.244Z,11.93
2023-03-10T20:58:08.870Z,11.20
2023-03-10T21:00:36.245Z,12.12
2023-03-10T21:03:03.590Z,11.29
2023-03-10T21:05:31.161Z,11.34
2023-03-10T21:07:58.512Z,10.98
2023-03-10T21:10:26.608Z,11.58
2023-03-10T21:12:54.238Z,12.16
2023-03-10T21:15:21.579Z,11.98
2023-03-10T21:17:48.986Z,12.74
2023-03-10T21:20:18.909Z,12.05
2023-03-10T21:22:46.449Z,12.63
2023-03-10T21:25:16.491Z,13.00
2023-03-10T21:27:46.763Z,13.12
2023-03-10T21:30:14.321Z,13.04
2023-03-10T21:32:41.672Z,12.04
2023-03-10T21:35:12.627Z,12.17
2023-03-10T21:37:46.707Z,12.94
2023-03-10T21:40:15.161Z,12.94
2023-03-10T21:42:42.536Z,13.32
2023-03-10T21:45:12.603Z,13.20
2023-03-10T21:47:40.225Z,13.22
2023-03-10T21:50:08.624Z,13.22
2023-03-10T21:52:36.200Z,13.20
2023-03-10T21:55:03.914Z,13.26
2023-03-10T21:57:31.239Z,12.51
2023-03-10T21:59:58.579Z,12.98
2023-03-10T22:02:28.154Z,13.33
2023-03-10T22:04:55.953Z,13.16
2023-03-10T22:07:23.349Z,13.08
2023-03-10T22:09:50.785Z,13.26
2023-03-10T22:12:18.630Z,13.00
2023-03-10T22:14:47.443Z,13.22
2023-03-10T22:17:14.856Z,12.96
2023-03-10T22:19:42.455Z,12.61
2023-03-10T22:22:09.816Z,11.87
2023-03-10T22:24:37.116Z,11.34
2023-03-10T22:27:05.602Z,11.24
2023-03-10T22:29:32.917Z,11.24
2023-03-10T22:32:00.294Z,11.13
2023-03-10T22:34:27.869Z,11.66
2023-03-10T22:36:55.225Z,10.98
2023-03-10T22:39:23.311Z,11.14
2023-03-10T22:41:50.935Z,11.38
2023-03-10T22:44:18.482Z,11.25
2023-03-10T22:46:46.619Z,11.76
2023-03-10T22:49:14.303Z,10.97
2023-03-10T22:51:41.732Z,11.43
2023-03-10T22:54:09.069Z,11.03
2023-03-10T22:56:36.641Z,11.03
2023-03-10T22:59:04.447Z,10.65
2023-03-10T23:01:31.896Z,11.02
2023-03-10T23:03:59.600Z,10.67
2023-03-10T23:06:29.197Z,10.72
2023-03-10T23:08:56.881Z,10.68
2023-03-10T23:11:24.539Z,10.74
2023-03-10T23:13:51.900Z,10.68
2023-03-10T23:16:19.856Z,10.66
2023-03-10T23:18:47.567Z,10.75
2023-03-10T23:21:14.898Z,10.56
2023-03-10T23:23:43.764Z,10.72
2023-03-10T23:26:11.614Z,10.58
2023-03-10T23:28:38.979Z,10.44
2023-03-10T23:31:06.914Z,10.54
2023-03-10T23:33:34.582Z,10.51
2023-03-10T23:36:01.916Z,10.36
2023-03-10T23:38:29.348Z,10.16
2023-03-10T23:40:56.991Z,10.55
2023-03-10T23:43:24.331Z,10.20
2023-03-10T23:45:51.758Z,9.99
2023-03-10T23:48:19.887Z,10.07
2023-03-10T23:50:47.608Z,10.30
2023-03-10T23:53:15.624Z,10.58
2023-03-10T23:55:44.488Z,10.11
2023-03-10T23:58:12.964Z,10.14
